Pays
Station

 

Conditions  météo  pour  Minneapolis, Flying Cloud Airport  -  Etats-Unis    Etats-Unis

  
19 °C
    
 
 

METAR pour Minneapolis, Flying Cloud Airport :

KFCM 251438Z 00000KT 1SM -RA BR BKN004 OVC070 19/18 A2987 RMK AO2 P0003 T01940178

 

Voici le bulletin pour Minneapolis, Flying Cloud Airport - Etats-Unis.
 
Le bulletin a été fait il y a 11 minutes, à 14:38 UTC .
Le vent était calme.
 
La température était de 19 °C, avec un point de rosée à 18 °C.
La pression atmosphérique était de 1012 hPa.
L'humidité relative était de 93.9%.
 
Il y avait 5 à 7/8ème de nébulosité à une hauteur de 122 mètres. Le ciel était nuageux à partir d'une hauteur de 2134 mètres
 
La visibilité globale était de 1609 mètres.
 
Actuellement léger/legère pluie plus brume.

 
 
 

Pays :   A   B   C   D   E   F   G   H   I   J   K   L   M   N   O   P   Q   R   S   T   U   V   W   Y   Z

 

Partenaires :  Info Météo avec Met'info
Météo Marine avec MeteoMarine.net
Infos Site  |  Infos Légales  |  Crédits  |  Confidentialité
Contactez-nous  |  Ajouter aux favoris
© 2013-2020 METAR - Tous droits réservés